Flight Track Log - Related Links

Times and Time Zones

All times are in EDT time to prevent confusion due to time zone crossing. See the CPZ5750 flight status page for this flight to view local times or setup timezone preferences in your user account.

Time Position Orientation Groundspeed Altitude Reporting Facility
EDT Latitude Longitude Course Direction KTS MPH feet Rate Location/Type
Wed 07:46:07 PM 42.7144 -73.8614 255° West 227 261 2,800  Level Boston Center
Wed 07:47:42 PM 42.7947 -73.9539 320° Northwest 268 308 6,900 2,826 Climbing Boston Center
Wed 07:48:00 PM 42.8350 -74.3431 283° West  Level FlightAware Approximate
Wed 07:48:42 PM 42.8500 -74.0261 316° Northwest 278 320 10,100  Level Boston Center
Wed 07:49:00 PM 42.8581 -74.4815 283° West  Level FlightAware Approximate
Wed 07:49:42 PM 42.9175 -74.1072 319° Northwest 285 328 11,800  Level Boston Center
Wed 07:50:00 PM 42.8915 -74.6095 281° West  Level FlightAware Approximate
Wed 07:50:42 PM 42.9872 -74.1914 319° Northwest 322 371 14,400  Level Boston Center
Wed 07:51:42 PM 43.0589 -74.2758 319° Northwest 336 387 16,500 1,800 Climbing Boston Center
Wed 07:52:42 PM 43.1364 -74.3692 319° Northwest 354 407 18,000 1,650 Climbing Boston Center
Wed 07:53:42 PM 43.2100 -74.4514 321° Northwest 371 427 19,800 2,100 Climbing Boston Center
Wed 07:54:42 PM 43.2917 -74.5425 321° Northwest 377 434 22,200 2,350 Climbing Boston Center
Wed 07:55:42 PM 43.3736 -74.6225 325° Northwest 370 426 24,500 2,300 Climbing Boston Center
Wed 07:56:42 PM 43.4533 -74.7025 324° Northwest 365 420 26,800 1,950 Climbing Boston Center
Wed 07:57:42 PM 43.5311 -74.7797 324° Northwest 353 406 28,400 1,000 Climbing Boston Center
Wed 07:58:42 PM 43.5725 -74.8903 297° West 327 376 28,800 864 Climbing Boston Center
Wed 07:59:54 PM 43.5961 -75.0461 282° West 332 382 30,300 1,455 Climbing Boston Center
Wed 08:00:54 PM 43.6178 -75.1878 282° West 345 397 32,000 850 Climbing Boston Center
Wed 08:01:54 PM 43.6394 -75.3236 282° West 351 404 32,000 100 Level Boston Center
Wed 08:02:54 PM 43.6608 -75.4708 281° West 376 433 32,200 500 Climbing Boston Center
Wed 08:03:54 PM 43.6817 -75.6242 281° West 392 451 33,000 950 Climbing Boston Center
Wed 08:04:54 PM 43.7044 -75.7719 282° West 399 459 34,100 1,100 Climbing Boston Center
Wed 08:05:54 PM 43.7250 -75.9194 281° West 399 459 35,200 950 Climbing Boston Center
Wed 08:06:54 PM 43.7458 -76.0589 282° West 389 448 36,000 400 Climbing Boston Center
Wed 08:07:54 PM 43.7661 -76.2039 281° West 384 442 36,000  Level Boston Center
Wed 08:08:54 PM 43.7844 -76.3458 280° West 384 442 36,000  Level Boston Center
Wed 08:09:54 PM 43.8064 -76.4942 282° West 389 448 36,000  Level Boston Center
Wed 08:10:54 PM 43.8261 -76.6394 281° West 389 448 36,000  Level Boston Center
Wed 08:11:54 PM 43.8333 -76.7667 275° West 380 437 36,000  Level Toronto Center
Wed 08:12:54 PM 43.8500 -76.9000 280° West 380 437 36,000  Level Toronto Center
Wed 08:13:54 PM 43.8667 -77.0500 279° West 380 437 36,000  Level Toronto Center
Wed 08:14:54 PM 43.8833 -77.1833 280° West 380 437 36,000  Level Toronto Center
Wed 08:15:54 PM 43.9000 -77.3167 280° West 380 437 36,000  Level Toronto Center
Wed 08:16:54 PM 43.9333 -77.4833 286° West 380 437 36,000  Level Toronto Center
Wed 08:17:54 PM 43.9500 -77.6167 280° West 380 437 36,000  Level Toronto Center
Wed 08:18:54 PM 43.9667 -77.7500 280° West 380 437 36,000  Level Toronto Center
Wed 08:19:54 PM 43.9833 -77.9167 278° West 380 437 36,000  Level Toronto Center
Wed 08:20:54 PM 43.9833 -78.0500 270° West 380 437 36,000  Level Toronto Center
Wed 08:21:54 PM 44.0167 -78.2000 287° West 380 437 36,000  Level Toronto Center
Wed 08:22:54 PM 44.0167 -78.3333 270° West 380 437 36,000  Level Toronto Center
Wed 08:23:54 PM 44.0500 -78.5000 286° West 380 437 36,000  Level Toronto Center
Wed 08:24:54 PM 44.0667 -78.6333 280° West 380 437 36,000  Level Toronto Center
Wed 08:25:54 PM 44.0833 -78.7667 280° West 380 437 36,000  Level Toronto Center
Wed 08:26:54 PM 44.1000 -78.9167 279° West 380 437 36,000  Level Toronto Center
Wed 08:27:54 PM 44.1167 -79.0833 278° West 380 437 36,000  Level Toronto Center
Wed 08:28:54 PM 44.1333 -79.2167 280° West 390 449 36,000  Level Toronto Center
Wed 08:29:54 PM 44.1500 -79.3833 278° West 390 449 36,000  Level Toronto Center
Wed 08:30:54 PM 44.1667 -79.5167 280° West 380 437 36,000  Level Toronto Center
Wed 08:31:54 PM 44.1833 -79.6500 280° West 380 437 36,000  Level Toronto Center
Wed 08:32:54 PM 44.2000 -79.8000 279° West 380 437 36,000  Level Toronto Center
Wed 08:33:54 PM 44.2167 -79.9333 280° West 370 426 36,000  Level Toronto Center
Wed 08:34:54 PM 44.2333 -80.1000 278° West 370 426 36,000  Level Toronto Center
Wed 08:35:54 PM 44.2333 -80.2167 270° West 370 426 36,000  Level Toronto Center
Wed 08:36:54 PM 44.2500 -80.3833 278° West 370 426 36,000  Level Toronto Center
Wed 08:37:54 PM 44.2667 -80.5167 280° West 370 426 36,000  Level Toronto Center
Wed 08:38:54 PM 44.2833 -80.6500 280° West 360 414 36,000  Level Toronto Center
Wed 08:39:54 PM 44.3000 -80.8000 279° West 370 426 36,000  Level Toronto Center
Wed 08:40:54 PM 44.3000 -80.9333 270° West 370 426 36,000  Level Toronto Center
Wed 08:41:54 PM 44.3167 -81.0833 279° West 360 414 36,000  Level Toronto Center
Wed 08:42:54 PM 44.3333 -81.2167 280° West 360 414 36,000  Level Toronto Center
Wed 08:43:54 PM 44.3500 -81.3500 280° West 360 414 36,000  Level Toronto Center
Wed 08:44:54 PM 44.3667 -81.5000 279° West 370 426 36,000  Level Toronto Center
Wed 08:45:54 PM 44.3667 -81.6167 270° West 360 414 36,000  Level Toronto Center
Wed 08:46:54 PM 44.3833 -81.7833 278° West 360 414 36,000  Level Toronto Center
Wed 08:47:54 PM 44.4000 -81.9000 281° West 360 414 36,000  Level Toronto Center
Wed 08:48:54 PM 44.4000 -82.0667 270° West 360 414 36,000  Level Toronto Center
Wed 08:49:54 PM 44.4167 -82.1833 281° West 360 414 36,000  Level Toronto Center
Wed 08:50:54 PM 44.4333 -82.3333 279° West 360 414 36,000  Level Toronto Center
Wed 08:51:34 PM 44.4497 -82.4289 284° West 361 415 36,000  Level Minneapolis Center
Wed 08:52:37 PM 44.4631 -82.5700 278° West 364 419 36,000  Level Minneapolis Center
Wed 08:53:39 PM 44.4742 -82.7119 276° West 366 421 36,000  Level Minneapolis Center
Wed 08:54:41 PM 44.4850 -82.8539 276° West 367 422 36,000  Level Minneapolis Center
Wed 08:55:43 PM 44.4961 -82.9992 276° West 373 429 36,000  Level Minneapolis Center
Wed 08:56:45 PM 44.5083 -83.1442 277° West 375 432 36,000  Level Minneapolis Center
Wed 08:57:47 PM 44.5217 -83.3217 276° West 381 438 36,000  Level Minneapolis Center
Wed 08:58:49 PM 44.5319 -83.4714 276° West 384 442 36,000  Level Minneapolis Center
Wed 08:59:51 PM 44.5439 -83.6200 276° West 385 443 36,000  Level Minneapolis Center
Wed 09:00:53 PM 44.5528 -83.7692 275° West 385 443 36,000  Level Minneapolis Center
Wed 09:01:55 PM 44.5653 -83.9217 277° West 390 449 36,000  Level Minneapolis Center
Wed 09:02:57 PM 44.5753 -84.0739 275° West 393 452 36,000  Level Minneapolis Center
Wed 09:03:59 PM 44.5886 -84.2567 276° West 393 452 36,000  Level Minneapolis Center
Wed 09:05:01 PM 44.5983 -84.4100 275° West 395 455 36,000  Level Minneapolis Center
Wed 09:06:04 PM 44.6086 -84.5633 275° West 394 453 36,000  Level Minneapolis Center
Wed 09:07:06 PM 44.6186 -84.7178 275° West 399 459 36,000  Level Minneapolis Center
Wed 09:08:08 PM 44.6281 -84.8722 275° West 397 457 36,000  Level Minneapolis Center
Wed 09:09:10 PM 44.6400 -85.0594 275° West 401 461 36,000  Level Minneapolis Center
Wed 09:10:12 PM 44.6492 -85.2161 275° West 402 463 36,000  Level Minneapolis Center
Wed 09:11:14 PM 44.6578 -85.3719 274° West 401 461 36,000  Level Minneapolis Center
Wed 09:12:16 PM 44.6658 -85.5269 274° West 399 459 36,000  Level Minneapolis Center
Wed 09:13:18 PM 44.6639 -85.6828 269° West 400 460 36,000  Level Minneapolis Center
Wed 09:14:20 PM 44.6586 -85.8367 267° West 399 459 36,000  Level Minneapolis Center
Wed 09:15:22 PM 44.6536 -85.9914 267° West 398 458 36,000  Level Minneapolis Center
Wed 09:16:24 PM 44.6461 -86.1761 267° West 398 458 36,000  Level Minneapolis Center
Wed 09:17:26 PM 44.6403 -86.3408 267° West 396 456 36,000  Level Minneapolis Center
Wed 09:18:28 PM 44.6333 -86.4967 266° West 397 457 36,000  Level Minneapolis Center
Wed 09:19:30 PM 44.6278 -86.6525 267° West 399 459 36,000  Level Minneapolis Center
Wed 09:20:33 PM 44.6214 -86.8067 267° West 397 457 36,000  Level Minneapolis Center
Wed 09:21:35 PM 44.6156 -86.9606 267° West 397 457 36,000  Level Minneapolis Center
Wed 09:22:37 PM 44.6083 -87.1161 266° West 398 458 36,000  Level Minneapolis Center
Wed 09:23:39 PM 44.6017 -87.2706 267° West 398 458 36,000  Level Minneapolis Center
Wed 09:24:41 PM 44.5931 -87.4564 266° West 398 458 36,000  Level Minneapolis Center
Wed 09:25:43 PM 44.5850 -87.6100 266° West 397 457 36,000  Level Minneapolis Center
Wed 09:26:45 PM 44.5775 -87.7631 266° West 395 455 36,000  Level Minneapolis Center
Wed 09:27:47 PM 44.5697 -87.9194 266° West 393 452 36,000  Level Minneapolis Center
Wed 09:28:49 PM 44.5617 -88.0717 266° West 394 453 36,000  Level Minneapolis Center
Wed 09:29:51 PM 44.5606 -88.2494 270° West 394 453 36,000  Level Minneapolis Center
Wed 09:30:53 PM 44.5794 -88.3981 280° West 387 445 36,000  Level Minneapolis Center
Wed 09:31:55 PM 44.5975 -88.5497 280° West 393 452 36,000  Level Minneapolis Center
Wed 09:32:57 PM 44.6142 -88.7019 279° West 395 455 36,000  Level Minneapolis Center
Wed 09:33:59 PM 44.6281 -88.8275 279° West 394 453 36,000  Level Minneapolis Center
Wed 09:35:01 PM 44.6508 -89.0272 279° West 390 449 36,000  Level Minneapolis Center
Wed 09:36:04 PM 44.6669 -89.1794 279° West 392 451 36,000  Level Minneapolis Center
Wed 09:37:06 PM 44.6836 -89.3314 279° West 395 455 36,000  Level Minneapolis Center
Wed 09:38:08 PM 44.6994 -89.4833 278° West 395 455 36,000 -484 Level Minneapolis Center
Wed 09:39:10 PM 44.7158 -89.6358 279° West 396 456 35,000 -1,065 Descending Minneapolis Center
Wed 09:40:12 PM 44.7358 -89.8167 279° West 402 463 33,800 -1,258 Descending Minneapolis Center
Wed 09:41:14 PM 44.7539 -89.9717 279° West 403 464 32,400 -871 Descending Minneapolis Center
Wed 09:42:16 PM 44.7761 -90.1256 282° West 402 463 32,000 -194 Descending Minneapolis Center
Wed 09:43:18 PM 44.7969 -90.2828 281° West 408 470 32,000  Level Minneapolis Center
Wed 09:44:20 PM 44.8186 -90.4408 281° West 410 472 32,000 -774 Level Minneapolis Center
Wed 09:45:22 PM 44.8403 -90.6017 281° West 408 470 30,400 -1,645 Descending Minneapolis Center
Wed 09:46:24 PM 44.8597 -90.7608 280° West 410 472 28,600 -1,984 Descending Minneapolis Center
Wed 09:47:26 PM 44.8858 -90.9511 281° West 415 478 26,300 -1,984 Descending Minneapolis Center
Wed 09:48:28 PM 44.9042 -91.1058 280° West 406 467 24,500 -1,694 Descending Minneapolis Center
Wed 09:49:30 PM 44.9242 -91.2586 281° West 401 461 22,800 -1,645 Descending Minneapolis Center
Wed 09:50:32 PM 44.9411 -91.4069 279° West 392 451 21,100 -1,645 Descending Minneapolis Center
Wed 09:51:34 PM 44.9589 -91.5514 280° West 380 437 19,400 -1,645 Descending Minneapolis Center
Wed 09:52:36 PM 44.9786 -91.6928 281° West 373 429 17,700 -1,694 Descending Minneapolis Center
Wed 09:53:38 PM 44.9986 -91.8611 280° West 367 422 15,900 -1,463 Descending Minneapolis Center
Wed 09:54:39 PM 45.0119 -91.9708 280° West 358 412 14,700 -1,512 Descending Minneapolis Center
Wed 09:55:41 PM 45.0306 -92.1347 279° West 354 407 12,800 -1,694 Descending Minneapolis Center
Wed 09:56:43 PM 45.0469 -92.2703 280° West 353 406 11,200 -1,016 Descending Minneapolis Center
Wed 09:57:45 PM 45.0306 -92.4061 260° West 353 406 10,700 -677 Descending Minneapolis Center
Wed 09:58:47 PM 44.9828 -92.5083 237° Southwest 317 365 9,800 -1,268 Descending Minneapolis Center
Wed 09:59:48 PM 44.9278 -92.5933 228° Southwest 296 341 8,100 -1,258 Descending Minneapolis Center
Wed 10:00:51 PM 44.8658 -92.6756 223° Southwest 254 292 7,200 -629 Descending Minneapolis Center
Wed 10:01:52 PM 44.8050 -92.7194 207° Southwest 245 282 6,800 -732 Descending Minneapolis Center
Wed 10:02:54 PM 44.7447 -92.7650 208° Southwest 245 282 5,700 -871 Descending Minneapolis Center
Wed 10:03:56 PM 44.7261 -92.8389 251° West 214 246 5,000 -341 Descending Minneapolis Center
Wed 10:04:57 PM 44.7547 -92.9033 302° West 195 224 5,000 -244 Level Minneapolis Center
Wed 10:05:59 PM 44.7825 -92.9678 301° West 194 223 4,500 -484 Descending Minneapolis Center

Login

Don't have an account? Register now (free) for customized features, flight alerts, and more!